sensor_id;sensor_type;location;lat;lon;timestamp;temperature;humidity
7720;DHT22;3902;49.474;8.616;2022-09-03T00:02:19;22.60;64.80
7720;DHT22;3902;49.474;8.616;2022-09-03T00:07:48;22.60;65.00
7720;DHT22;3902;49.474;8.616;2022-09-03T00:10:25;22.60;65.00
7720;DHT22;3902;49.474;8.616;2022-09-03T00:12:56;22.50;65.30
7720;DHT22;3902;49.474;8.616;2022-09-03T00:15:24;22.60;66.10
7720;DHT22;3902;49.474;8.616;2022-09-03T00:18:09;22.60;65.70
7720;DHT22;3902;49.474;8.616;2022-09-03T00:20:50;22.50;65.70
7720;DHT22;3902;49.474;8.616;2022-09-03T00:23:27;22.60;65.50
7720;DHT22;3902;49.474;8.616;2022-09-03T00:26:08;22.60;66.10
7720;DHT22;3902;49.474;8.616;2022-09-03T00:28:41;22.70;66.40
7720;DHT22;3902;49.474;8.616;2022-09-03T00:31:45;22.60;66.30
7720;DHT22;3902;49.474;8.616;2022-09-03T00:36:44;22.60;66.20
7720;DHT22;3902;49.474;8.616;2022-09-03T00:39:19;22.70;66.20
7720;DHT22;3902;49.474;8.616;2022-09-03T00:44:47;22.60;66.10
7720;DHT22;3902;49.474;8.616;2022-09-03T00:53:26;22.60;66.90
7720;DHT22;3902;49.474;8.616;2022-09-03T01:01:25;22.60;67.10
7720;DHT22;3902;49.474;8.616;2022-09-03T01:04:31;22.60;67.30
7720;DHT22;3902;49.474;8.616;2022-09-03T01:09:46;22.70;67.50
7720;DHT22;3902;49.474;8.616;2022-09-03T01:25:53;22.60;77.40
7720;DHT22;3902;49.474;8.616;2022-09-03T01:37:03;22.40;80.70
7720;DHT22;3902;49.474;8.616;2022-09-03T01:39:54;22.40;81.30
7720;DHT22;3902;49.474;8.616;2022-09-03T01:42:50;22.40;80.90
7720;DHT22;3902;49.474;8.616;2022-09-03T01:45:29;22.30;81.40
7720;DHT22;3902;49.474;8.616;2022-09-03T01:48:20;22.30;82.80
7720;DHT22;3902;49.474;8.616;2022-09-03T01:51:05;22.30;82.90
7720;DHT22;3902;49.474;8.616;2022-09-03T02:02:01;22.20;83.30
7720;DHT22;3902;49.474;8.616;2022-09-03T02:04:27;22.20;84.50
7720;DHT22;3902;49.474;8.616;2022-09-03T02:06:55;22.20;85.10
7720;DHT22;3902;49.474;8.616;2022-09-03T02:09:22;22.20;85.00
7720;DHT22;3902;49.474;8.616;2022-09-03T02:12:13;22.20;85.70
7720;DHT22;3902;49.474;8.616;2022-09-03T02:14:40;22.10;84.90
7720;DHT22;3902;49.474;8.616;2022-09-03T02:17:06;22.10;84.60
7720;DHT22;3902;49.474;8.616;2022-09-03T02:19:33;22.10;84.90
7720;DHT22;3902;49.474;8.616;2022-09-03T02:22:01;22.10;85.70
7720;DHT22;3902;49.474;8.616;2022-09-03T02:24:28;22.10;86.30
7720;DHT22;3902;49.474;8.616;2022-09-03T02:26:53;22.10;86.50
7720;DHT22;3902;49.474;8.616;2022-09-03T02:29:20;22.10;86.50
7720;DHT22;3902;49.474;8.616;2022-09-03T02:31:46;22.10;86.90
7720;DHT22;3902;49.474;8.616;2022-09-03T02:34:12;22.10;87.20
7720;DHT22;3902;49.474;8.616;2022-09-03T02:36:44;22.00;87.10
7720;DHT22;3902;49.474;8.616;2022-09-03T02:39:11;22.00;86.80
7720;DHT22;3902;49.474;8.616;2022-09-03T02:41:37;22.00;87.30
7720;DHT22;3902;49.474;8.616;2022-09-03T02:44:08;22.00;87.30
7720;DHT22;3902;49.474;8.616;2022-09-03T02:46:57;22.00;87.40
7720;DHT22;3902;49.474;8.616;2022-09-03T02:49:23;22.00;87.10
7720;DHT22;3902;49.474;8.616;2022-09-03T02:51:49;22.00;87.10
7720;DHT22;3902;49.474;8.616;2022-09-03T02:54:14;22.00;87.50
7720;DHT22;3902;49.474;8.616;2022-09-03T02:56:40;21.90;88.20
7720;DHT22;3902;49.474;8.616;2022-09-03T02:59:07;21.90;87.80
7720;DHT22;3902;49.474;8.616;2022-09-03T03:01:34;21.90;88.60
7720;DHT22;3902;49.474;8.616;2022-09-03T03:03:59;21.80;88.70
7720;DHT22;3902;49.474;8.616;2022-09-03T03:06:25;21.80;87.10
7720;DHT22;3902;49.474;8.616;2022-09-03T03:08:51;21.80;86.00
7720;DHT22;3902;49.474;8.616;2022-09-03T03:11:17;21.80;85.00
7720;DHT22;3902;49.474;8.616;2022-09-03T03:13:45;21.70;84.20
7720;DHT22;3902;49.474;8.616;2022-09-03T03:16:12;21.70;84.40
7720;DHT22;3902;49.474;8.616;2022-09-03T03:18:37;21.70;84.10
7720;DHT22;3902;49.474;8.616;2022-09-03T03:21:15;21.70;84.00
7720;DHT22;3902;49.474;8.616;2022-09-03T03:23:41;21.70;84.00
7720;DHT22;3902;49.474;8.616;2022-09-03T03:26:10;21.60;83.30
7720;DHT22;3902;49.474;8.616;2022-09-03T03:28:36;21.70;83.00
7720;DHT22;3902;49.474;8.616;2022-09-03T03:31:09;21.60;83.10
7720;DHT22;3902;49.474;8.616;2022-09-03T03:33:36;21.60;84.40
7720;DHT22;3902;49.474;8.616;2022-09-03T03:36:09;21.60;83.60
7720;DHT22;3902;49.474;8.616;2022-09-03T03:38:35;21.60;83.70
7720;DHT22;3902;49.474;8.616;2022-09-03T03:41:15;21.50;83.80
7720;DHT22;3902;49.474;8.616;2022-09-03T03:43:42;21.50;84.00
7720;DHT22;3902;49.474;8.616;2022-09-03T03:46:08;21.60;84.10
7720;DHT22;3902;49.474;8.616;2022-09-03T03:48:34;21.50;83.20
7720;DHT22;3902;49.474;8.616;2022-09-03T03:51:01;21.50;82.50
7720;DHT22;3902;49.474;8.616;2022-09-03T03:53:29;21.50;82.10
7720;DHT22;3902;49.474;8.616;2022-09-03T03:55:56;21.50;82.10
7720;DHT22;3902;49.474;8.616;2022-09-03T03:58:22;21.50;82.30
7720;DHT22;3902;49.474;8.616;2022-09-03T04:00:49;21.40;82.10
7720;DHT22;3902;49.474;8.616;2022-09-03T04:03:15;21.40;82.40
7720;DHT22;3902;49.474;8.616;2022-09-03T04:05:40;21.40;82.40
7720;DHT22;3902;49.474;8.616;2022-09-03T04:08:06;21.40;82.40
7720;DHT22;3902;49.474;8.616;2022-09-03T04:10:32;21.40;82.60
7720;DHT22;3902;49.474;8.616;2022-09-03T04:12:57;21.40;82.60
7720;DHT22;3902;49.474;8.616;2022-09-03T04:15:23;21.40;83.00
7720;DHT22;3902;49.474;8.616;2022-09-03T04:17:48;21.40;83.10
7720;DHT22;3902;49.474;8.616;2022-09-03T04:20:14;21.40;83.50
7720;DHT22;3902;49.474;8.616;2022-09-03T04:22:40;21.40;83.70
7720;DHT22;3902;49.474;8.616;2022-09-03T04:25:05;21.40;83.70
7720;DHT22;3902;49.474;8.616;2022-09-03T04:27:31;21.40;83.60
7720;DHT22;3902;49.474;8.616;2022-09-03T04:29:57;21.40;83.50
7720;DHT22;3902;49.474;8.616;2022-09-03T04:32:22;21.40;83.50
7720;DHT22;3902;49.474;8.616;2022-09-03T04:35:06;21.40;83.50
7720;DHT22;3902;49.474;8.616;2022-09-03T04:37:32;21.40;83.20
7720;DHT22;3902;49.474;8.616;2022-09-03T04:39:57;21.40;83.70
7720;DHT22;3902;49.474;8.616;2022-09-03T04:42:23;21.40;83.50
7720;DHT22;3902;49.474;8.616;2022-09-03T04:44:49;21.40;82.60
7720;DHT22;3902;49.474;8.616;2022-09-03T04:47:14;21.30;82.80
7720;DHT22;3902;49.474;8.616;2022-09-03T04:49:40;21.40;82.90
7720;DHT22;3902;49.474;8.616;2022-09-03T04:52:06;21.40;83.40
7720;DHT22;3902;49.474;8.616;2022-09-03T04:54:31;21.40;83.20
7720;DHT22;3902;49.474;8.616;2022-09-03T04:56:57;21.40;83.90
7720;DHT22;3902;49.474;8.616;2022-09-03T04:59:22;21.30;83.10
7720;DHT22;3902;49.474;8.616;2022-09-03T05:01:48;21.30;83.00
7720;DHT22;3902;49.474;8.616;2022-09-03T05:04:14;21.30;82.10
7720;DHT22;3902;49.474;8.616;2022-09-03T05:06:39;21.30;82.30
7720;DHT22;3902;49.474;8.616;2022-09-03T05:09:05;21.30;82.70
7720;DHT22;3902;49.474;8.616;2022-09-03T05:11:31;21.30;85.40
7720;DHT22;3902;49.474;8.616;2022-09-03T05:13:58;21.30;89.30
7720;DHT22;3902;49.474;8.616;2022-09-03T05:16:24;21.20;90.00
7720;DHT22;3902;49.474;8.616;2022-09-03T05:18:55;21.20;91.00
7720;DHT22;3902;49.474;8.616;2022-09-03T05:21:21;21.30;91.50
7720;DHT22;3902;49.474;8.616;2022-09-03T05:23:48;21.30;91.80
7720;DHT22;3902;49.474;8.616;2022-09-03T05:26:28;21.30;91.70
7720;DHT22;3902;49.474;8.616;2022-09-03T05:28:59;21.20;90.70
7720;DHT22;3902;49.474;8.616;2022-09-03T05:31:26;21.20;90.60
7720;DHT22;3902;49.474;8.616;2022-09-03T05:33:57;21.20;91.60
7720;DHT22;3902;49.474;8.616;2022-09-03T05:36:28;21.30;91.90
7720;DHT22;3902;49.474;8.616;2022-09-03T05:38:55;21.20;91.80
7720;DHT22;3902;49.474;8.616;2022-09-03T05:41:22;21.20;91.00
7720;DHT22;3902;49.474;8.616;2022-09-03T05:43:49;21.20;90.70
7720;DHT22;3902;49.474;8.616;2022-09-03T05:46:22;21.20;90.50
7720;DHT22;3902;49.474;8.616;2022-09-03T05:48:52;21.20;90.20
7720;DHT22;3902;49.474;8.616;2022-09-03T05:51:18;21.20;90.40
7720;DHT22;3902;49.474;8.616;2022-09-03T05:53:45;21.10;90.10
7720;DHT22;3902;49.474;8.616;2022-09-03T05:56:17;21.00;89.90
7720;DHT22;3902;49.474;8.616;2022-09-03T05:58:48;20.90;89.80
7720;DHT22;3902;49.474;8.616;2022-09-03T06:01:19;21.00;90.00
7720;DHT22;3902;49.474;8.616;2022-09-03T06:03:47;21.10;90.20
7720;DHT22;3902;49.474;8.616;2022-09-03T06:06:13;20.90;89.90
7720;DHT22;3902;49.474;8.616;2022-09-03T06:08:40;20.90;90.10
7720;DHT22;3902;49.474;8.616;2022-09-03T06:11:07;20.80;89.70
7720;DHT22;3902;49.474;8.616;2022-09-03T06:13:33;20.90;89.90
7720;DHT22;3902;49.474;8.616;2022-09-03T06:16:01;21.00;90.30
7720;DHT22;3902;49.474;8.616;2022-09-03T06:18:28;21.00;90.30
7720;DHT22;3902;49.474;8.616;2022-09-03T06:20:55;21.00;90.30
7720;DHT22;3902;49.474;8.616;2022-09-03T06:23:21;21.10;90.50
7720;DHT22;3902;49.474;8.616;2022-09-03T06:25:46;21.10;90.50
7720;DHT22;3902;49.474;8.616;2022-09-03T06:28:12;21.10;90.60
7720;DHT22;3902;49.474;8.616;2022-09-03T06:30:37;21.10;90.80
7720;DHT22;3902;49.474;8.616;2022-09-03T06:33:03;21.10;90.80
7720;DHT22;3902;49.474;8.616;2022-09-03T06:35:28;21.20;90.90
7720;DHT22;3902;49.474;8.616;2022-09-03T06:37:54;21.20;91.30
7720;DHT22;3902;49.474;8.616;2022-09-03T06:40:20;21.30;91.50
7720;DHT22;3902;49.474;8.616;2022-09-03T06:43:11;21.30;94.30
7720;DHT22;3902;49.474;8.616;2022-09-03T06:46:08;21.30;98.00
7720;DHT22;3902;49.474;8.616;2022-09-03T06:48:59;21.10;98.90
7720;DHT22;3902;49.474;8.616;2022-09-03T06:51:50;21.00;99.90
7720;DHT22;3902;49.474;8.616;2022-09-03T06:54:41;20.90;99.90
7720;DHT22;3902;49.474;8.616;2022-09-03T06:57:32;21.00;99.90
7720;DHT22;3902;49.474;8.616;2022-09-03T07:00:23;21.00;99.90
7720;DHT22;3902;49.474;8.616;2022-09-03T07:03:14;21.00;99.90
7720;DHT22;3902;49.474;8.616;2022-09-03T07:06:12;21.00;99.90
7720;DHT22;3902;49.474;8.616;2022-09-03T07:09:07;21.00;99.90
7720;DHT22;3902;49.474;8.616;2022-09-03T07:11:59;21.00;99.90
7720;DHT22;3902;49.474;8.616;2022-09-03T07:14:50;21.00;99.90
7720;DHT22;3902;49.474;8.616;2022-09-03T07:17:41;20.90;99.90
7720;DHT22;3902;49.474;8.616;2022-09-03T07:20:32;20.90;99.90
7720;DHT22;3902;49.474;8.616;2022-09-03T07:23:23;20.90;99.90
7720;DHT22;3902;49.474;8.616;2022-09-03T07:26:19;20.90;99.90
7720;DHT22;3902;49.474;8.616;2022-09-03T07:29:11;20.60;99.90
7720;DHT22;3902;49.474;8.616;2022-09-03T07:32:02;20.60;99.90
7720;DHT22;3902;49.474;8.616;2022-09-03T07:34:53;20.60;99.90
7720;DHT22;3902;49.474;8.616;2022-09-03T07:37:44;20.60;99.90
7720;DHT22;3902;49.474;8.616;2022-09-03T07:40:35;20.60;99.90
7720;DHT22;3902;49.474;8.616;2022-09-03T07:43:27;20.60;99.90
7720;DHT22;3902;49.474;8.616;2022-09-03T07:46:21;20.40;99.90
7720;DHT22;3902;49.474;8.616;2022-09-03T07:49:12;20.50;99.90
7720;DHT22;3902;49.474;8.616;2022-09-03T07:52:03;20.50;99.90
7720;DHT22;3902;49.474;8.616;2022-09-03T07:54:54;20.40;99.90
7720;DHT22;3902;49.474;8.616;2022-09-03T07:57:45;20.30;99.90
7720;DHT22;3902;49.474;8.616;2022-09-03T08:00:36;20.30;99.90
7720;DHT22;3902;49.474;8.616;2022-09-03T08:03:27;20.30;99.90
7720;DHT22;3902;49.474;8.616;2022-09-03T08:06:20;20.30;99.90
7720;DHT22;3902;49.474;8.616;2022-09-03T08:09:11;20.20;99.90
7720;DHT22;3902;49.474;8.616;2022-09-03T08:12:02;20.20;99.90
7720;DHT22;3902;49.474;8.616;2022-09-03T08:14:53;20.20;99.90
7720;DHT22;3902;49.474;8.616;2022-09-03T08:17:44;20.20;99.90
7720;DHT22;3902;49.474;8.616;2022-09-03T08:20:36;20.20;99.90
7720;DHT22;3902;49.474;8.616;2022-09-03T08:23:27;20.20;99.90
7720;DHT22;3902;49.474;8.616;2022-09-03T08:26:19;20.30;99.90
7720;DHT22;3902;49.474;8.616;2022-09-03T08:29:11;20.20;99.90
7720;DHT22;3902;49.474;8.616;2022-09-03T08:32:03;20.30;99.90
7720;DHT22;3902;49.474;8.616;2022-09-03T08:34:54;20.30;99.90
7720;DHT22;3902;49.474;8.616;2022-09-03T08:37:45;20.40;99.90
7720;DHT22;3902;49.474;8.616;2022-09-03T08:40:36;20.50;99.90
7720;DHT22;3902;49.474;8.616;2022-09-03T08:43:27;20.60;99.90
7720;DHT22;3902;49.474;8.616;2022-09-03T08:46:19;20.50;99.90
7720;DHT22;3902;49.474;8.616;2022-09-03T08:49:14;20.50;99.90
7720;DHT22;3902;49.474;8.616;2022-09-03T08:52:15;20.30;99.90
7720;DHT22;3902;49.474;8.616;2022-09-03T08:55:27;20.10;99.90
7720;DHT22;3902;49.474;8.616;2022-09-03T08:58:25;20.10;99.90
7720;DHT22;3902;49.474;8.616;2022-09-03T09:01:31;19.70;99.90
7720;DHT22;3902;49.474;8.616;2022-09-03T09:07:31;19.70;99.90
7720;DHT22;3902;49.474;8.616;2022-09-03T09:10:34;19.50;99.90
7720;DHT22;3902;49.474;8.616;2022-09-03T09:13:33;19.60;99.90
7720;DHT22;3902;49.474;8.616;2022-09-03T09:16:59;19.70;99.90
7720;DHT22;3902;49.474;8.616;2022-09-03T09:23:06;19.70;99.90
7720;DHT22;3902;49.474;8.616;2022-09-03T09:26:01;19.50;99.90
7720;DHT22;3902;49.474;8.616;2022-09-03T09:29:01;19.70;99.90
7720;DHT22;3902;49.474;8.616;2022-09-03T09:31:53;19.60;99.90
7720;DHT22;3902;49.474;8.616;2022-09-03T09:34:44;19.70;99.90
7720;DHT22;3902;49.474;8.616;2022-09-03T09:37:46;19.90;99.90
7720;DHT22;3902;49.474;8.616;2022-09-03T09:40:42;20.10;99.90
7720;DHT22;3902;49.474;8.616;2022-09-03T09:43:34;20.20;99.90
7720;DHT22;3902;49.474;8.616;2022-09-03T10:56:12;23.70;99.90
7720;DHT22;3902;49.474;8.616;2022-09-03T10:59:04;23.90;99.90
7720;DHT22;3902;49.474;8.616;2022-09-03T11:07:02;25.30;99.90
7720;DHT22;3902;49.474;8.616;2022-09-03T11:09:36;26.10;99.90
7720;DHT22;3902;49.474;8.616;2022-09-03T11:14:39;28.20;99.90
7720;DHT22;3902;49.474;8.616;2022-09-03T11:17:15;28.50;99.90
7720;DHT22;3902;49.474;8.616;2022-09-03T11:19:48;29.00;99.90
7720;DHT22;3902;49.474;8.616;2022-09-03T11:22:16;29.70;99.90
7720;DHT22;3902;49.474;8.616;2022-09-03T11:24:47;30.30;99.90
7720;DHT22;3902;49.474;8.616;2022-09-03T11:30:09;30.60;99.90
7720;DHT22;3902;49.474;8.616;2022-09-03T11:32:51;29.90;98.80
7720;DHT22;3902;49.474;8.616;2022-09-03T11:35:40;29.50;99.90
7720;DHT22;3902;49.474;8.616;2022-09-03T11:41:12;29.00;99.90
7720;DHT22;3902;49.474;8.616;2022-09-03T11:43:43;28.30;99.90
7720;DHT22;3902;49.474;8.616;2022-09-03T11:48:43;27.90;99.90
7720;DHT22;3902;49.474;8.616;2022-09-03T11:56:29;29.10;99.90
7720;DHT22;3902;49.474;8.616;2022-09-03T12:01:42;29.80;99.90
7720;DHT22;3902;49.474;8.616;2022-09-03T12:04:13;29.80;99.90
7720;DHT22;3902;49.474;8.616;2022-09-03T12:07:07;30.30;99.40
7720;DHT22;3902;49.474;8.616;2022-09-03T12:10:00;30.80;97.40
7720;DHT22;3902;49.474;8.616;2022-09-03T12:18:32;32.90;93.70
7720;DHT22;3902;49.474;8.616;2022-09-03T12:21:02;33.50;91.90
7720;DHT22;3902;49.474;8.616;2022-09-03T12:25:56;34.00;90.30
7720;DHT22;3902;49.474;8.616;2022-09-03T12:28:24;34.50;90.10
7720;DHT22;3902;49.474;8.616;2022-09-03T12:30:51;34.50;85.70
7720;DHT22;3902;49.474;8.616;2022-09-03T12:33:19;35.00;84.40
7720;DHT22;3902;49.474;8.616;2022-09-03T12:35:58;35.60;84.00
7720;DHT22;3902;49.474;8.616;2022-09-03T12:38:25;36.00;81.70
7720;DHT22;3902;49.474;8.616;2022-09-03T12:40:51;36.40;80.10
7720;DHT22;3902;49.474;8.616;2022-09-03T12:43:17;36.80;77.80
7720;DHT22;3902;49.474;8.616;2022-09-03T12:45:44;36.70;77.20
7720;DHT22;3902;49.474;8.616;2022-09-03T12:48:15;36.50;76.30
7720;DHT22;3902;49.474;8.616;2022-09-03T12:50:42;35.30;73.50
7720;DHT22;3902;49.474;8.616;2022-09-03T12:53:11;34.90;77.50
7720;DHT22;3902;49.474;8.616;2022-09-03T12:55:47;34.70;78.70
7720;DHT22;3902;49.474;8.616;2022-09-03T12:58:34;34.10;78.30
7720;DHT22;3902;49.474;8.616;2022-09-03T13:01:09;33.60;80.60
7720;DHT22;3902;49.474;8.616;2022-09-03T13:03:46;33.00;80.80
7720;DHT22;3902;49.474;8.616;2022-09-03T13:06:16;32.20;83.10
7720;DHT22;3902;49.474;8.616;2022-09-03T13:08:47;31.50;84.70
7720;DHT22;3902;49.474;8.616;2022-09-03T13:11:19;30.70;85.40
7720;DHT22;3902;49.474;8.616;2022-09-03T13:14:00;30.60;87.20
7720;DHT22;3902;49.474;8.616;2022-09-03T13:25:09;32.40;85.50
7720;DHT22;3902;49.474;8.616;2022-09-03T13:28:04;32.70;86.30
7720;DHT22;3902;49.474;8.616;2022-09-03T13:30:48;32.70;84.80
7720;DHT22;3902;49.474;8.616;2022-09-03T13:33:31;33.00;84.80
7720;DHT22;3902;49.474;8.616;2022-09-03T13:36:20;33.40;83.70
7720;DHT22;3902;49.474;8.616;2022-09-03T13:39:03;32.70;83.10
7720;DHT22;3902;49.474;8.616;2022-09-03T13:41:38;33.30;85.00
7720;DHT22;3902;49.474;8.616;2022-09-03T13:44:15;34.00;84.20
7720;DHT22;3902;49.474;8.616;2022-09-03T13:46:52;34.40;82.20
7720;DHT22;3902;49.474;8.616;2022-09-03T13:49:41;33.80;81.10
7720;DHT22;3902;49.474;8.616;2022-09-03T13:58:00;32.60;85.00
7720;DHT22;3902;49.474;8.616;2022-09-03T14:00:36;33.00;85.40
7720;DHT22;3902;49.474;8.616;2022-09-03T14:03:29;33.70;83.90
7720;DHT22;3902;49.474;8.616;2022-09-03T14:16:40;33.60;80.00
7720;DHT22;3902;49.474;8.616;2022-09-03T14:19:20;33.20;82.50
7720;DHT22;3902;49.474;8.616;2022-09-03T14:21:56;32.20;82.60
7720;DHT22;3902;49.474;8.616;2022-09-03T14:24:50;31.20;85.80
7720;DHT22;3902;49.474;8.616;2022-09-03T14:27:25;29.60;88.50
7720;DHT22;3902;49.474;8.616;2022-09-03T14:29:59;28.90;90.60
7720;DHT22;3902;49.474;8.616;2022-09-03T14:40:24;28.30;92.60
7720;DHT22;3902;49.474;8.616;2022-09-03T14:49:03;27.80;93.70
7720;DHT22;3902;49.474;8.616;2022-09-03T15:00:32;28.10;94.40
7720;DHT22;3902;49.474;8.616;2022-09-03T15:08:21;27.70;94.80
7720;DHT22;3902;49.474;8.616;2022-09-03T15:10:54;27.20;95.50
7720;DHT22;3902;49.474;8.616;2022-09-03T15:13:34;27.20;95.80
7720;DHT22;3902;49.474;8.616;2022-09-03T15:19:39;26.50;97.00
7720;DHT22;3902;49.474;8.616;2022-09-03T15:22:22;26.40;97.50
7720;DHT22;3902;49.474;8.616;2022-09-03T15:33:51;25.60;99.90
7720;DHT22;3902;49.474;8.616;2022-09-03T15:36:23;25.60;99.90
7720;DHT22;3902;49.474;8.616;2022-09-03T15:38:57;25.50;99.90
7720;DHT22;3902;49.474;8.616;2022-09-03T15:41:43;25.40;99.90
7720;DHT22;3902;49.474;8.616;2022-09-03T15:44:13;25.30;99.90
7720;DHT22;3902;49.474;8.616;2022-09-03T15:49:42;25.20;99.90
7720;DHT22;3902;49.474;8.616;2022-09-03T15:53:12;25.00;99.90
7720;DHT22;3902;49.474;8.616;2022-09-03T15:55:36;25.00;99.90
7720;DHT22;3902;49.474;8.616;2022-09-03T15:58:33;24.90;99.90
7720;DHT22;3902;49.474;8.616;2022-09-03T16:01:20;24.80;99.90
7720;DHT22;3902;49.474;8.616;2022-09-03T16:04:00;24.80;99.90
7720;DHT22;3902;49.474;8.616;2022-09-03T16:09:19;24.80;99.90
7720;DHT22;3902;49.474;8.616;2022-09-03T16:17:54;24.40;99.90
7720;DHT22;3902;49.474;8.616;2022-09-03T16:20:37;24.30;99.90
7720;DHT22;3902;49.474;8.616;2022-09-03T16:26:05;24.30;99.90
7720;DHT22;3902;49.474;8.616;2022-09-03T16:28:58;24.40;99.90
7720;DHT22;3902;49.474;8.616;2022-09-03T16:34:09;24.20;99.90
7720;DHT22;3902;49.474;8.616;2022-09-03T16:37:00;24.10;99.90
7720;DHT22;3902;49.474;8.616;2022-09-03T16:42:21;24.00;99.90
7720;DHT22;3902;49.474;8.616;2022-09-03T16:50:43;23.90;99.90
7720;DHT22;3902;49.474;8.616;2022-09-03T16:53:33;23.90;99.90
7720;DHT22;3902;49.474;8.616;2022-09-03T16:56:30;23.90;99.90
7720;DHT22;3902;49.474;8.616;2022-09-03T17:11:18;23.60;99.90
7720;DHT22;3902;49.474;8.616;2022-09-03T17:22:09;23.70;99.90
7720;DHT22;3902;49.474;8.616;2022-09-03T17:24:43;23.70;99.90
7720;DHT22;3902;49.474;8.616;2022-09-03T17:30:48;23.50;99.90
7720;DHT22;3902;49.474;8.616;2022-09-03T17:33:31;23.40;99.90
7720;DHT22;3902;49.474;8.616;2022-09-03T17:36:11;23.30;99.90
7720;DHT22;3902;49.474;8.616;2022-09-03T17:44:03;23.30;99.90
7720;DHT22;3902;49.474;8.616;2022-09-03T17:49:06;23.30;99.90
7720;DHT22;3902;49.474;8.616;2022-09-03T17:51:45;23.40;99.90
7720;DHT22;3902;49.474;8.616;2022-09-03T17:57:17;23.40;99.90
7720;DHT22;3902;49.474;8.616;2022-09-03T18:00:04;23.40;99.90
7720;DHT22;3902;49.474;8.616;2022-09-03T18:02:51;23.40;99.90
7720;DHT22;3902;49.474;8.616;2022-09-03T18:05:25;23.40;99.90
7720;DHT22;3902;49.474;8.616;2022-09-03T18:16:09;23.40;99.90
7720;DHT22;3902;49.474;8.616;2022-09-03T18:18:41;23.30;99.90
7720;DHT22;3902;49.474;8.616;2022-09-03T18:21:11;23.30;99.90
7720;DHT22;3902;49.474;8.616;2022-09-03T18:26:57;23.20;99.90
7720;DHT22;3902;49.474;8.616;2022-09-03T18:29:47;23.20;99.90
7720;DHT22;3902;49.474;8.616;2022-09-03T18:32:33;23.20;99.90
7720;DHT22;3902;49.474;8.616;2022-09-03T18:35:17;23.10;99.90
7720;DHT22;3902;49.474;8.616;2022-09-03T18:38:03;23.10;99.90
7720;DHT22;3902;49.474;8.616;2022-09-03T18:50:23;23.00;99.90
7720;DHT22;3902;49.474;8.616;2022-09-03T18:53:18;23.00;99.90
7720;DHT22;3902;49.474;8.616;2022-09-03T18:56:23;22.90;99.90
7720;DHT22;3902;49.474;8.616;2022-09-03T19:05:23;22.70;99.90
7720;DHT22;3902;49.474;8.616;2022-09-03T19:12:25;22.60;99.90
7720;DHT22;3902;49.474;8.616;2022-09-03T19:15:55;22.60;99.90
7720;DHT22;3902;49.474;8.616;2022-09-03T19:21:40;22.60;99.90
7720;DHT22;3902;49.474;8.616;2022-09-03T19:24:29;22.50;99.90
7720;DHT22;3902;49.474;8.616;2022-09-03T19:27:21;22.50;99.90
7720;DHT22;3902;49.474;8.616;2022-09-03T19:30:30;22.40;99.90
7720;DHT22;3902;49.474;8.616;2022-09-03T19:33:43;22.40;99.90
7720;DHT22;3902;49.474;8.616;2022-09-03T19:36:41;22.30;99.90
7720;DHT22;3902;49.474;8.616;2022-09-03T19:45:34;22.20;99.90
7720;DHT22;3902;49.474;8.616;2022-09-03T19:48:46;22.20;99.90
7720;DHT22;3902;49.474;8.616;2022-09-03T19:54:27;22.20;99.90
7720;DHT22;3902;49.474;8.616;2022-09-03T19:57:14;22.10;99.90
7720;DHT22;3902;49.474;8.616;2022-09-03T20:00:02;22.10;99.90
7720;DHT22;3902;49.474;8.616;2022-09-03T20:02:47;22.10;99.90
7720;DHT22;3902;49.474;8.616;2022-09-03T20:05:33;22.00;99.90
7720;DHT22;3902;49.474;8.616;2022-09-03T20:08:18;22.00;99.90
7720;DHT22;3902;49.474;8.616;2022-09-03T20:11:04;22.00;99.90
7720;DHT22;3902;49.474;8.616;2022-09-03T20:13:30;21.90;99.90
7720;DHT22;3902;49.474;8.616;2022-09-03T20:16:34;21.90;99.90
7720;DHT22;3902;49.474;8.616;2022-09-03T20:19:33;21.80;99.90
7720;DHT22;3902;49.474;8.616;2022-09-03T20:22:22;21.80;99.90
7720;DHT22;3902;49.474;8.616;2022-09-03T20:30:21;21.70;99.90
7720;DHT22;3902;49.474;8.616;2022-09-03T20:33:14;21.70;99.90
7720;DHT22;3902;49.474;8.616;2022-09-03T20:44:53;21.60;99.90
7720;DHT22;3902;49.474;8.616;2022-09-03T20:47:44;21.50;99.90
7720;DHT22;3902;49.474;8.616;2022-09-03T20:50:35;21.50;99.90
7720;DHT22;3902;49.474;8.616;2022-09-03T20:56:02;21.40;99.90
7720;DHT22;3902;49.474;8.616;2022-09-03T20:58:56;21.40;99.90
7720;DHT22;3902;49.474;8.616;2022-09-03T21:06:54;21.40;99.90
7720;DHT22;3902;49.474;8.616;2022-09-03T21:10:14;21.40;99.90
7720;DHT22;3902;49.474;8.616;2022-09-03T21:15:23;21.30;99.90
7720;DHT22;3902;49.474;8.616;2022-09-03T21:18:13;21.30;99.90
7720;DHT22;3902;49.474;8.616;2022-09-03T21:20:46;21.30;99.90
7720;DHT22;3902;49.474;8.616;2022-09-03T21:23:20;21.30;99.90
7720;DHT22;3902;49.474;8.616;2022-09-03T21:28:44;21.20;99.90
7720;DHT22;3902;49.474;8.616;2022-09-03T21:31:32;21.20;99.90
7720;DHT22;3902;49.474;8.616;2022-09-03T21:34:07;21.20;99.90
7720;DHT22;3902;49.474;8.616;2022-09-03T21:36:34;21.20;99.90
7720;DHT22;3902;49.474;8.616;2022-09-03T21:39:12;21.10;99.90
7720;DHT22;3902;49.474;8.616;2022-09-03T21:41:43;21.10;99.90
7720;DHT22;3902;49.474;8.616;2022-09-03T21:47:14;21.10;99.90
7720;DHT22;3902;49.474;8.616;2022-09-03T21:50:01;21.00;99.90
7720;DHT22;3902;49.474;8.616;2022-09-03T21:52:47;21.00;99.90
7720;DHT22;3902;49.474;8.616;2022-09-03T21:55:21;21.00;99.90
7720;DHT22;3902;49.474;8.616;2022-09-03T21:57:56;21.00;99.90
7720;DHT22;3902;49.474;8.616;2022-09-03T22:00:26;21.00;99.90
7720;DHT22;3902;49.474;8.616;2022-09-03T22:02:58;21.00;99.90
7720;DHT22;3902;49.474;8.616;2022-09-03T22:05:27;20.90;99.90
7720;DHT22;3902;49.474;8.616;2022-09-03T22:10:30;20.90;99.90
7720;DHT22;3902;49.474;8.616;2022-09-03T22:15:50;20.90;99.90
7720;DHT22;3902;49.474;8.616;2022-09-03T22:18:27;20.80;99.90
7720;DHT22;3902;49.474;8.616;2022-09-03T22:21:10;20.80;99.90
7720;DHT22;3902;49.474;8.616;2022-09-03T22:26:48;20.70;99.90
7720;DHT22;3902;49.474;8.616;2022-09-03T22:29:28;20.70;99.90
7720;DHT22;3902;49.474;8.616;2022-09-03T22:32:03;20.60;99.90
7720;DHT22;3902;49.474;8.616;2022-09-03T22:34:45;20.60;99.90
7720;DHT22;3902;49.474;8.616;2022-09-03T22:40:25;20.60;99.90
7720;DHT22;3902;49.474;8.616;2022-09-03T22:43:24;20.50;99.90
7720;DHT22;3902;49.474;8.616;2022-09-03T22:46:13;20.50;99.90
7720;DHT22;3902;49.474;8.616;2022-09-03T22:48:58;20.50;99.90
7720;DHT22;3902;49.474;8.616;2022-09-03T22:51:32;20.40;99.90
7720;DHT22;3902;49.474;8.616;2022-09-03T22:54:29;20.40;99.90
7720;DHT22;3902;49.474;8.616;2022-09-03T22:57:00;20.40;99.90
7720;DHT22;3902;49.474;8.616;2022-09-03T22:59:37;20.30;99.90
7720;DHT22;3902;49.474;8.616;2022-09-03T23:02:19;20.40;99.90
7720;DHT22;3902;49.474;8.616;2022-09-03T23:05:26;20.30;99.90
7720;DHT22;3902;49.474;8.616;2022-09-03T23:13:46;20.20;99.90
7720;DHT22;3902;49.474;8.616;2022-09-03T23:16:32;20.20;99.90
7720;DHT22;3902;49.474;8.616;2022-09-03T23:19:05;20.20;99.90
7720;DHT22;3902;49.474;8.616;2022-09-03T23:21:57;20.20;99.90
7720;DHT22;3902;49.474;8.616;2022-09-03T23:24:39;20.20;99.90
7720;DHT22;3902;49.474;8.616;2022-09-03T23:27:09;20.20;99.90
7720;DHT22;3902;49.474;8.616;2022-09-03T23:29:47;20.10;99.90
7720;DHT22;3902;49.474;8.616;2022-09-03T23:32:15;20.10;99.90
7720;DHT22;3902;49.474;8.616;2022-09-03T23:34:41;20.10;99.90
7720;DHT22;3902;49.474;8.616;2022-09-03T23:37:12;20.00;99.90